Dobbin, Texas
Current Conditions -  °F | °C
As of 4:53 PM on Friday 31 Oct 2014 (Local Time) from KCXO Reporting Station
Clear Clear  
Wind Chill: 73°   Ceiling: Unl
Heat Index: 73°   Visibility: 10mi
Dew Point: 41°   Wind: 14mph
Humidity: 31%   Direction: 360°N
Pressure: 30.18"   Gusts: 21mph
Location:  30.37°N, 95.78°W
Report Text: KCXO 312153Z 36012G18KT 10SM CLR 23/05 A3018 RMK AO2 SLP218 T02280050
Loading
Personal Weather Stations






























Interactive Weather Map
Tropical Storm Tracking
New forecast layout! Learn more

10-Day Weather Forecast

Advertisements
Track Severe Weather on mobile